Terminal Aerodrome Forecast
Issued by NWS

Home | Current Version | Previous Version | Text Only | Print | Product List | Glossary On
Versions: 1 2 3 4 5 6 7 8 9 10 11 12 13 14 15 16 17 18 19 20 21 22 23 24 25 26 27 28 29 30 31 32
000
FTUS41 KBOX 021724
TAFHYA
TAF
KHYA 021724Z 0218/0318 31015G27KT P6SM BKN040
     FM022000 30014G24KT P6SM SCT040
     FM030000 29013G22KT P6SM SCT250
     FM030900 33010G20KT P6SM SKC
     FM031500 34008KT P6SM FEW250=

USA.gov is the U.S. government's official web portal to all federal, state and local government web resources and services.